createdAt,value
2022-10-02T00:02:25.151Z,88.40
2022-10-02T00:05:08.282Z,88.48
2022-10-02T00:07:52.452Z,88.49
2022-10-02T00:10:40.278Z,88.57
2022-10-02T00:13:24.561Z,88.57
2022-10-02T00:16:01.926Z,88.68
2022-10-02T00:18:41.635Z,88.80
2022-10-02T00:21:42.739Z,88.83
2022-10-02T00:24:27.513Z,88.89
2022-10-02T00:27:19.104Z,88.93
2022-10-02T00:30:00.497Z,88.91
2022-10-02T00:32:45.582Z,88.97
2022-10-02T00:35:49.966Z,89.00
2022-10-02T00:38:43.821Z,89.01
2022-10-02T00:42:04.209Z,89.10
2022-10-02T00:45:35.423Z,89.12
2022-10-02T00:48:35.745Z,89.09
2022-10-02T00:51:37.860Z,89.13
2022-10-02T00:54:46.293Z,89.10
2022-10-02T00:57:43.791Z,89.05
2022-10-02T01:00:23.124Z,89.09
2022-10-02T01:03:22.349Z,89.01
2022-10-02T01:05:58.186Z,88.96
2022-10-02T01:08:34.300Z,88.91
2022-10-02T01:11:11.393Z,88.88
2022-10-02T01:13:48.046Z,88.80
2022-10-02T01:16:24.323Z,88.81
2022-10-02T01:19:00.383Z,88.81
2022-10-02T01:21:49.184Z,88.78
2022-10-02T01:24:36.778Z,88.79
2022-10-02T01:27:12.716Z,88.72
2022-10-02T01:29:52.369Z,88.70
2022-10-02T01:32:29.792Z,88.70
2022-10-02T01:35:07.468Z,88.65
2022-10-02T01:37:48.184Z,88.60
2022-10-02T01:40:34.454Z,88.58
2022-10-02T01:43:16.002Z,88.50
2022-10-02T01:46:27.795Z,88.54
2022-10-02T01:49:31.474Z,88.51
2022-10-02T01:52:37.863Z,88.54
2022-10-02T01:55:41.947Z,88.68
2022-10-02T01:58:37.590Z,88.77
2022-10-02T02:01:32.398Z,88.71
2022-10-02T02:04:24.030Z,88.73
2022-10-02T02:07:10.762Z,88.71
2022-10-02T02:09:57.321Z,88.76
2022-10-02T02:12:43.869Z,88.82
2022-10-02T02:15:31.286Z,88.82
2022-10-02T02:18:18.234Z,88.81
2022-10-02T02:21:02.638Z,88.79
2022-10-02T02:23:43.402Z,88.77
2022-10-02T02:26:22.047Z,88.67
2022-10-02T02:29:04.039Z,88.71
2022-10-02T02:31:49.186Z,88.69
2022-10-02T02:34:33.957Z,88.68
2022-10-02T02:37:19.100Z,88.70
2022-10-02T02:40:01.620Z,88.70
2022-10-02T02:42:48.192Z,88.70
2022-10-02T02:45:30.786Z,88.72
2022-10-02T02:48:16.194Z,88.71
2022-10-02T02:50:56.709Z,88.72
2022-10-02T02:53:43.361Z,88.70
2022-10-02T02:56:23.058Z,88.64
2022-10-02T02:59:06.598Z,88.55
2022-10-02T03:01:43.031Z,88.54
2022-10-02T03:04:19.807Z,88.60
2022-10-02T03:07:02.594Z,88.60
2022-10-02T03:09:41.032Z,88.62
2022-10-02T03:12:37.269Z,88.65
2022-10-02T03:15:43.528Z,88.74
2022-10-02T03:18:49.337Z,88.80
2022-10-02T03:21:36.837Z,88.86
2022-10-02T03:24:25.206Z,88.81
2022-10-02T03:27:09.622Z,88.80
2022-10-02T03:29:56.531Z,88.79
2022-10-02T03:32:33.271Z,88.77
2022-10-02T03:35:14.327Z,88.71
2022-10-02T03:37:54.089Z,88.74
2022-10-02T03:40:30.532Z,88.98
2022-10-02T03:43:06.553Z,89.01
2022-10-02T03:45:57.945Z,89.10
2022-10-02T03:48:33.827Z,89.10
2022-10-02T03:51:10.078Z,89.14
2022-10-02T03:53:46.943Z,89.12
2022-10-02T03:56:37.681Z,89.09
2022-10-02T03:59:28.308Z,89.05
2022-10-02T04:02:08.804Z,88.94
2022-10-02T04:04:55.609Z,88.81
2022-10-02T04:07:40.228Z,88.71
2022-10-02T04:10:38.011Z,88.63
2022-10-02T04:13:24.717Z,88.45
2022-10-02T04:16:14.033Z,88.41
2022-10-02T04:19:00.195Z,88.35
2022-10-02T04:21:49.997Z,88.28
2022-10-02T04:24:35.017Z,88.21
2022-10-02T04:27:18.727Z,88.06
2022-10-02T04:30:01.431Z,87.90
2022-10-02T04:32:40.967Z,87.76
2022-10-02T04:35:30.816Z,87.64
2022-10-02T04:39:03.267Z,87.51
2022-10-02T04:41:55.907Z,87.60
2022-10-02T04:44:58.057Z,87.50
2022-10-02T04:48:11.498Z,87.47
2022-10-02T04:51:04.675Z,87.39
2022-10-02T04:54:18.783Z,87.32
2022-10-02T04:57:23.073Z,87.23
2022-10-02T05:00:12.908Z,87.21
2022-10-02T05:03:19.766Z,87.18
2022-10-02T05:06:29.531Z,87.16
2022-10-02T05:09:25.889Z,87.07
2022-10-02T05:12:32.722Z,87.04
2022-10-02T05:15:49.086Z,86.95
2022-10-02T05:18:50.465Z,86.81
2022-10-02T05:22:15.099Z,86.45
2022-10-02T05:25:16.507Z,86.31
2022-10-02T05:28:17.258Z,86.15
2022-10-02T05:31:04.402Z,86.08
2022-10-02T05:34:18.291Z,86.07
2022-10-02T05:37:36.211Z,85.71
2022-10-02T05:40:25.874Z,85.56
2022-10-02T05:43:13.293Z,85.43
2022-10-02T05:46:00.649Z,85.19
2022-10-02T05:48:46.423Z,84.90
2022-10-02T05:51:37.016Z,84.71
2022-10-02T05:54:29.722Z,84.70
2022-10-02T05:57:16.755Z,84.47
2022-10-02T06:00:06.761Z,84.24
2022-10-02T06:02:57.957Z,84.15
2022-10-02T06:05:50.417Z,83.89
2022-10-02T06:08:39.092Z,83.78
2022-10-02T06:11:25.941Z,83.79
2022-10-02T06:14:10.521Z,83.55
2022-10-02T06:16:55.536Z,83.48
2022-10-02T06:19:39.607Z,83.28
2022-10-02T06:22:21.082Z,83.34
2022-10-02T06:25:04.133Z,83.27
2022-10-02T06:27:49.729Z,83.31
2022-10-02T06:30:26.167Z,83.21
2022-10-02T06:33:13.698Z,82.68
2022-10-02T06:36:30.134Z,82.39
2022-10-02T06:39:35.334Z,82.16
2022-10-02T06:42:29.494Z,80.76
2022-10-02T06:45:18.677Z,80.33
2022-10-02T06:48:25.421Z,80.44
2022-10-02T06:51:18.469Z,80.44
2022-10-02T06:54:21.026Z,79.94
2022-10-02T06:57:32.947Z,79.38
2022-10-02T07:00:18.152Z,79.61
2022-10-02T07:03:43.347Z,79.55
2022-10-02T07:06:55.223Z,79.42
2022-10-02T07:10:18.448Z,78.87
2022-10-02T07:13:30.401Z,78.94
2022-10-02T07:16:51.026Z,78.89
2022-10-02T07:20:24.146Z,78.27
2022-10-02T07:23:38.967Z,78.38
2022-10-02T07:26:48.356Z,78.26
2022-10-02T07:29:55.456Z,78.06
2022-10-02T07:33:03.823Z,77.95
2022-10-02T07:35:58.477Z,77.55
2022-10-02T07:39:06.773Z,77.44
2022-10-02T07:42:34.625Z,77.26
2022-10-02T07:45:30.342Z,77.23
2022-10-02T07:48:44.147Z,76.23
2022-10-02T07:51:50.147Z,76.14
2022-10-02T07:55:15.083Z,75.88
2022-10-02T07:58:05.542Z,75.71
2022-10-02T08:00:50.294Z,76.22
2022-10-02T08:03:33.580Z,75.31
2022-10-02T08:06:11.666Z,72.71
2022-10-02T08:08:56.588Z,72.40
2022-10-02T08:11:40.381Z,70.17
2022-10-02T08:14:22.275Z,69.01
2022-10-02T08:17:05.133Z,67.02
2022-10-02T08:19:50.644Z,68.07
2022-10-02T08:22:35.752Z,67.86
2022-10-02T08:25:32.970Z,67.48
2022-10-02T08:28:19.774Z,68.13
2022-10-02T08:30:55.762Z,68.14
2022-10-02T08:33:35.421Z,68.27
2022-10-02T08:36:47.874Z,68.42
2022-10-02T08:40:48.747Z,67.98
2022-10-02T08:44:36.429Z,67.08
2022-10-02T08:48:09.043Z,68.13
2022-10-02T08:51:45.519Z,67.75
2022-10-02T08:55:34.180Z,67.59
2022-10-02T08:59:37.213Z,68.12
2022-10-02T09:06:19.195Z,69.31
2022-10-02T09:10:19.465Z,69.08
2022-10-02T09:13:50.024Z,68.63
2022-10-02T09:16:48.614Z,68.06
2022-10-02T09:19:58.645Z,66.99
2022-10-02T09:23:25.622Z,65.72
2022-10-02T09:26:27.114Z,66.34
2022-10-02T09:30:11.241Z,66.16
2022-10-02T09:34:02.707Z,66.09
2022-10-02T09:37:28.418Z,65.71
2022-10-02T09:40:53.672Z,65.94
2022-10-02T09:44:19.771Z,65.59
2022-10-02T09:48:01.627Z,66.24
2022-10-02T09:51:48.803Z,66.48
2022-10-02T09:55:21.056Z,66.02
2022-10-02T09:59:07.279Z,66.72
2022-10-02T10:02:30.528Z,67.18
2022-10-02T10:05:53.503Z,66.84
2022-10-02T10:09:15.655Z,67.10
2022-10-02T10:13:12.460Z,67.16
2022-10-02T10:16:39.320Z,66.58
2022-10-02T10:20:12.853Z,66.35
2022-10-02T10:23:40.962Z,65.54
2022-10-02T10:27:07.996Z,66.11
2022-10-02T10:30:37.542Z,65.22
2022-10-02T10:34:25.846Z,65.22
2022-10-02T10:37:26.992Z,64.81
2022-10-02T10:40:43.246Z,64.12
2022-10-02T10:44:22.006Z,63.16
2022-10-02T10:47:34.805Z,63.09
2022-10-02T10:50:46.332Z,62.35
2022-10-02T10:54:27.374Z,63.40
2022-10-02T10:57:13.137Z,63.52
2022-10-02T11:00:20.217Z,64.10
2022-10-02T11:03:45.195Z,63.78
2022-10-02T11:07:10.143Z,64.27
2022-10-02T11:10:29.411Z,64.49
2022-10-02T11:13:51.466Z,64.38
2022-10-02T11:17:19.563Z,64.17
2022-10-02T11:20:22.229Z,63.40
2022-10-02T11:23:26.340Z,63.45
2022-10-02T11:26:35.652Z,63.37
2022-10-02T11:30:03.093Z,61.75
2022-10-02T11:33:38.450Z,62.86
2022-10-02T11:36:47.967Z,62.24
2022-10-02T11:40:01.363Z,60.85
2022-10-02T11:43:00.792Z,61.20
2022-10-02T11:46:10.029Z,60.97
2022-10-02T11:49:12.490Z,60.72
2022-10-02T11:52:10.941Z,61.32
2022-10-02T11:55:05.146Z,60.16
2022-10-02T11:58:00.279Z,61.10
2022-10-02T12:01:10.263Z,61.64
2022-10-02T12:04:05.764Z,61.20
2022-10-02T12:07:11.942Z,61.73
2022-10-02T12:10:13.878Z,61.73
2022-10-02T12:13:16.090Z,61.55
2022-10-02T12:16:04.878Z,61.81
2022-10-02T12:19:05.184Z,61.37
2022-10-02T12:22:21.213Z,60.90
2022-10-02T12:25:42.128Z,60.79
2022-10-02T12:28:33.513Z,60.78
2022-10-02T12:31:25.245Z,61.60
2022-10-02T12:34:26.130Z,63.75
2022-10-02T12:37:16.659Z,64.66
2022-10-02T12:40:10.418Z,65.22
2022-10-02T12:43:57.342Z,64.67
2022-10-02T12:47:19.161Z,65.34
2022-10-02T12:50:21.980Z,63.82
2022-10-02T12:54:01.769Z,63.90
2022-10-02T12:57:39.153Z,63.81
2022-10-02T13:00:19.564Z,63.99
2022-10-02T13:04:00.670Z,64.23
2022-10-02T13:07:46.056Z,64.24
2022-10-02T13:10:30.663Z,64.47
2022-10-02T13:13:42.490Z,63.96
2022-10-02T13:16:32.539Z,63.79
2022-10-02T13:19:30.590Z,63.77
2022-10-02T13:22:18.249Z,63.51
2022-10-02T13:25:26.586Z,62.18
2022-10-02T13:28:31.878Z,62.16
2022-10-02T13:31:27.984Z,61.76
2022-10-02T13:34:34.048Z,62.60
2022-10-02T13:37:35.862Z,61.45
2022-10-02T13:40:28.775Z,61.21
2022-10-02T13:43:40.967Z,60.50
2022-10-02T13:46:40.116Z,60.94
2022-10-02T13:49:38.093Z,60.20
2022-10-02T13:52:32.248Z,61.19
2022-10-02T13:55:28.756Z,60.36
2022-10-02T13:58:35.530Z,60.52
2022-10-02T14:01:31.825Z,58.28
2022-10-02T14:04:30.323Z,58.08
2022-10-02T14:07:28.254Z,57.85
2022-10-02T14:10:16.012Z,57.23
2022-10-02T14:13:16.206Z,56.79
2022-10-02T14:16:17.040Z,56.31
2022-10-02T14:19:36.185Z,56.11
2022-10-02T14:22:49.506Z,56.35
2022-10-02T14:25:49.723Z,57.27
2022-10-02T14:28:50.501Z,58.24
2022-10-02T14:32:19.187Z,60.83
2022-10-02T14:35:19.998Z,63.83
2022-10-02T14:39:04.530Z,66.24
2022-10-02T14:42:27.958Z,67.94
2022-10-02T14:45:59.682Z,67.84
2022-10-02T14:49:40.910Z,68.24
2022-10-02T14:52:54.429Z,68.69
2022-10-02T14:56:16.603Z,69.20
2022-10-02T14:59:12.088Z,69.65
2022-10-02T15:02:02.830Z,70.31
2022-10-02T15:05:04.536Z,70.65
2022-10-02T15:07:43.368Z,71.27
2022-10-02T15:10:27.373Z,71.97
2022-10-02T15:13:11.714Z,72.45
2022-10-02T15:16:15.006Z,72.56
2022-10-02T15:19:11.418Z,73.40
2022-10-02T15:21:58.585Z,73.84
2022-10-02T15:24:47.715Z,74.35
2022-10-02T15:27:43.890Z,74.59
2022-10-02T15:30:26.900Z,74.56
2022-10-02T15:33:21.402Z,74.63
2022-10-02T15:36:37.014Z,75.03
2022-10-02T15:39:50.385Z,75.14
2022-10-02T15:42:49.703Z,75.57
2022-10-02T15:46:05.726Z,75.74
2022-10-02T15:49:06.114Z,76.30
2022-10-02T15:52:12.066Z,76.89
2022-10-02T15:55:20.978Z,76.60
2022-10-02T15:58:19.238Z,76.58
2022-10-02T16:01:31.721Z,76.41
2022-10-02T16:04:27.058Z,76.35
2022-10-02T16:07:48.275Z,76.49
2022-10-02T16:10:37.299Z,76.78
2022-10-02T16:13:49.691Z,77.03
2022-10-02T16:17:19.424Z,77.67
2022-10-02T16:20:22.953Z,77.84
2022-10-02T16:23:36.251Z,78.12
2022-10-02T16:26:35.569Z,78.32
2022-10-02T16:29:35.680Z,78.63
2022-10-02T16:32:33.509Z,78.83
2022-10-02T16:36:20.110Z,78.94
2022-10-02T16:39:14.831Z,79.30
2022-10-02T16:42:14.770Z,79.44
2022-10-02T16:45:30.139Z,79.93
2022-10-02T16:48:14.859Z,80.01
2022-10-02T16:51:27.542Z,79.95
2022-10-02T16:54:21.245Z,80.27
2022-10-02T16:57:07.315Z,80.51
2022-10-02T16:59:53.891Z,80.58
2022-10-02T17:02:47.547Z,80.59
2022-10-02T17:05:36.777Z,80.59
2022-10-02T17:08:29.981Z,80.82
2022-10-02T17:11:23.886Z,80.87
2022-10-02T17:14:21.451Z,80.90
2022-10-02T17:17:12.383Z,81.02
2022-10-02T17:20:04.907Z,81.28
2022-10-02T17:23:00.542Z,81.57
2022-10-02T17:25:57.260Z,81.90
2022-10-02T17:28:50.225Z,82.01
2022-10-02T17:31:52.472Z,82.28
2022-10-02T17:34:33.035Z,82.49
2022-10-02T17:37:57.404Z,82.86
2022-10-02T17:40:52.487Z,83.14
2022-10-02T17:43:40.296Z,83.26
2022-10-02T17:47:10.329Z,83.45
2022-10-02T17:50:09.413Z,83.51
2022-10-02T17:53:11.936Z,83.64
2022-10-02T17:56:29.668Z,83.60
2022-10-02T18:00:06.809Z,83.77
2022-10-02T18:03:20.226Z,84.03
2022-10-02T18:06:26.614Z,84.57
2022-10-02T18:09:40.062Z,84.81
2022-10-02T18:12:53.533Z,85.10
2022-10-02T18:16:01.898Z,85.35
2022-10-02T18:18:55.868Z,85.40
2022-10-02T18:21:49.020Z,85.44
2022-10-02T18:24:53.233Z,85.52
2022-10-02T18:27:55.969Z,85.53
2022-10-02T18:30:47.375Z,85.57
2022-10-02T18:34:26.725Z,85.58
2022-10-02T18:37:35.634Z,85.80
2022-10-02T18:40:29.219Z,85.94
2022-10-02T18:43:38.923Z,85.95
2022-10-02T18:46:33.689Z,86.01
2022-10-02T18:49:39.228Z,86.11
2022-10-02T18:52:56.293Z,86.16
2022-10-02T18:56:08.579Z,86.10
2022-10-02T18:59:05.704Z,86.20
2022-10-02T19:02:04.286Z,86.27
2022-10-02T19:05:28.462Z,86.45
2022-10-02T19:08:24.226Z,86.51
2022-10-02T19:11:00.322Z,86.60
2022-10-02T19:13:43.596Z,87.35
2022-10-02T19:16:30.225Z,88.00
2022-10-02T19:19:27.970Z,85.58
2022-10-02T19:22:17.928Z,85.24
2022-10-02T19:24:58.837Z,85.35
2022-10-02T19:27:39.680Z,85.27
2022-10-02T19:30:31.368Z,85.35
2022-10-02T19:33:21.040Z,85.43
2022-10-02T19:35:57.129Z,85.64
2022-10-02T19:38:39.243Z,85.83
2022-10-02T19:41:18.892Z,85.95
2022-10-02T19:44:06.764Z,85.92
2022-10-02T19:46:49.808Z,86.10
2022-10-02T19:49:32.354Z,86.00
2022-10-02T19:52:36.934Z,86.10
2022-10-02T19:55:30.015Z,86.03
2022-10-02T19:58:17.127Z,86.00
2022-10-02T20:00:56.620Z,86.01
2022-10-02T20:03:36.089Z,86.15
2022-10-02T20:06:21.245Z,86.18
2022-10-02T20:09:04.490Z,86.26
2022-10-02T20:11:47.581Z,86.22
2022-10-02T20:14:30.014Z,86.30
2022-10-02T20:17:12.970Z,86.52
2022-10-02T20:19:55.385Z,86.59
2022-10-02T20:22:41.551Z,86.76
2022-10-02T20:25:28.655Z,86.80
2022-10-02T20:28:17.363Z,86.88
2022-10-02T20:31:02.176Z,86.92
2022-10-02T20:33:45.452Z,86.99
2022-10-02T20:36:29.346Z,87.02
2022-10-02T20:39:15.218Z,86.98
2022-10-02T20:42:03.116Z,87.05
2022-10-02T20:44:39.996Z,87.24
2022-10-02T20:48:06.948Z,87.37
2022-10-02T20:50:56.680Z,87.54
2022-10-02T20:54:51.588Z,87.58
2022-10-02T20:58:21.932Z,87.78
2022-10-02T21:01:20.828Z,87.81
2022-10-02T21:05:03.140Z,87.84
2022-10-02T21:08:33.121Z,87.84
2022-10-02T21:11:26.594Z,88.11
2022-10-02T21:15:03.591Z,88.17
2022-10-02T21:18:30.973Z,88.49
2022-10-02T21:22:09.279Z,88.57
2022-10-02T21:25:53.000Z,88.66
2022-10-02T21:29:19.347Z,88.74
2022-10-02T21:32:29.015Z,88.86
2022-10-02T21:35:45.213Z,89.23
2022-10-02T21:39:24.711Z,89.27
2022-10-02T21:43:09.780Z,89.30
2022-10-02T21:47:22.905Z,89.47
2022-10-02T21:50:37.520Z,89.64
2022-10-02T21:53:56.867Z,89.43
2022-10-02T21:57:59.168Z,89.38
2022-10-02T22:00:46.493Z,89.48
2022-10-02T22:04:21.932Z,89.44
2022-10-02T22:07:08.261Z,89.50
2022-10-02T22:10:02.387Z,89.43
2022-10-02T22:13:09.042Z,89.42
2022-10-02T22:16:05.201Z,89.35
2022-10-02T22:18:55.732Z,89.45
2022-10-02T22:22:04.774Z,89.54
2022-10-02T22:25:19.191Z,89.61
2022-10-02T22:28:17.569Z,89.72
2022-10-02T22:31:31.358Z,90.17
2022-10-02T22:34:32.427Z,90.10
2022-10-02T22:37:37.573Z,90.04
2022-10-02T22:40:23.764Z,90.04
2022-10-02T22:43:06.624Z,90.02
2022-10-02T22:45:50.152Z,90.02
2022-10-02T22:48:41.560Z,89.97
2022-10-02T22:51:27.887Z,89.96
2022-10-02T22:54:23.239Z,89.84
2022-10-02T22:57:15.608Z,89.79
2022-10-02T23:00:00.394Z,89.86
2022-10-02T23:02:50.928Z,89.82
2022-10-02T23:05:37.758Z,89.72
2022-10-02T23:08:30.991Z,89.68
2022-10-02T23:11:21.332Z,89.65
2022-10-02T23:14:03.450Z,89.53
2022-10-02T23:16:49.513Z,89.43
2022-10-02T23:19:38.860Z,89.38
2022-10-02T23:22:29.185Z,89.28
2022-10-02T23:25:20.773Z,89.23
2022-10-02T23:28:07.328Z,89.16
2022-10-02T23:30:50.057Z,89.17
2022-10-02T23:33:40.014Z,89.13
2022-10-02T23:36:30.439Z,88.93
2022-10-02T23:39:17.617Z,88.74
2022-10-02T23:42:00.417Z,88.69
2022-10-02T23:44:46.935Z,88.70
2022-10-02T23:47:43.444Z,88.71
2022-10-02T23:50:31.787Z,88.73
2022-10-02T23:53:41.021Z,88.64
2022-10-02T23:56:50.506Z,88.54
2022-10-02T23:59:58.521Z,88.28
